createdAt,value
2019-02-10T00:02:47.319Z,5.57
2019-02-10T00:07:54.434Z,4.43
2019-02-10T00:13:24.193Z,7.83
2019-02-10T00:18:30.492Z,3.97
2019-02-10T00:23:35.663Z,7.03
2019-02-10T00:28:40.653Z,5.33
2019-02-10T00:33:45.597Z,7.23
2019-02-10T00:38:50.765Z,6.93
2019-02-10T00:43:56.519Z,6.13
2019-02-10T00:49:03.302Z,9.07
2019-02-10T00:54:08.260Z,5.80
2019-02-10T00:59:13.181Z,6.20
2019-02-10T01:04:18.385Z,6.47
2019-02-10T01:09:23.313Z,4.63
2019-02-10T01:14:28.156Z,8.43
2019-02-10T01:19:37.096Z,6.50
2019-02-10T01:24:42.309Z,6.00
2019-02-10T01:29:47.426Z,8.07
2019-02-10T01:34:52.941Z,7.47
2019-02-10T01:39:57.918Z,6.97
2019-02-10T01:45:02.892Z,5.27
2019-02-10T01:50:09.168Z,8.87
2019-02-10T01:55:14.857Z,5.30
2019-02-10T02:00:20.146Z,9.17
2019-02-10T02:05:25.869Z,5.30
2019-02-10T02:10:33.841Z,4.97
2019-02-10T02:15:39.074Z,6.80
2019-02-10T02:20:43.913Z,4.47
2019-02-10T02:25:49.088Z,6.07
2019-02-10T02:30:55.854Z,5.60
2019-02-10T02:36:01.099Z,6.60
2019-02-10T02:41:06.464Z,6.93
2019-02-10T02:46:11.366Z,4.13
2019-02-10T02:51:16.275Z,3.03
2019-02-10T02:56:21.412Z,3.60
2019-02-10T03:01:26.749Z,5.43
2019-02-10T03:06:45.360Z,2.00
2019-02-10T03:11:51.077Z,2.33
2019-02-10T03:16:56.496Z,1.60
2019-02-10T03:22:03.354Z,1.40
2019-02-10T03:27:08.184Z,2.10
2019-02-10T03:32:13.108Z,1.63
2019-02-10T03:37:26.663Z,2.20
2019-02-10T03:42:24.955Z,2.97
2019-02-10T03:47:30.405Z,2.53
2019-02-10T03:52:35.257Z,0.90
2019-02-10T03:57:40.414Z,1.23
2019-02-10T04:02:45.556Z,1.83
2019-02-10T04:07:50.814Z,1.50
2019-02-10T04:12:56.311Z,0.97
2019-02-10T04:18:01.892Z,1.30
2019-02-10T04:23:10.542Z,0.90
2019-02-10T04:28:16.088Z,0.60
2019-02-10T04:33:21.502Z,0.30
2019-02-10T04:38:26.745Z,0.70
2019-02-10T04:43:31.967Z,0.70
2019-02-10T04:48:37.037Z,0.40
2019-02-10T04:53:41.939Z,0.57
2019-02-10T04:58:47.083Z,0.30
2019-02-10T05:03:52.360Z,0.83
2019-02-10T05:08:57.548Z,0.70
2019-02-10T05:14:02.504Z,0.20
2019-02-10T05:19:07.396Z,0.57
2019-02-10T05:24:12.505Z,0.40
2019-02-10T05:29:17.378Z,1.07
2019-02-10T05:34:22.602Z,0.50
2019-02-10T05:39:27.747Z,0.40
2019-02-10T05:44:33.605Z,0.67
2019-02-10T05:49:38.756Z,1.00
2019-02-10T05:54:43.878Z,0.57
2019-02-10T05:59:49.395Z,0.90
2019-02-10T06:04:54.473Z,0.53
2019-02-10T06:09:59.378Z,0.57
2019-02-10T06:15:04.313Z,0.60
2019-02-10T06:20:09.498Z,0.60
2019-02-10T06:25:14.506Z,0.47
2019-02-10T06:30:19.488Z,0.70
2019-02-10T06:35:24.780Z,0.90
2019-02-10T06:40:29.862Z,0.77
2019-02-10T06:45:35.185Z,1.40
2019-02-10T06:50:40.442Z,0.90
2019-02-10T06:55:45.344Z,1.27
2019-02-10T07:00:57.816Z,0.70
2019-02-10T07:06:03.067Z,1.33
2019-02-10T07:11:08.276Z,1.20
2019-02-10T07:16:54.841Z,0.70
2019-02-10T07:21:59.758Z,0.60
2019-02-10T07:27:18.884Z,0.57
2019-02-10T07:32:37.959Z,0.70
2019-02-10T07:37:54.530Z,0.80
2019-02-10T07:43:41.101Z,0.77
2019-02-10T07:49:23.373Z,0.60
2019-02-10T07:54:49.092Z,0.60
2019-02-10T08:00:09.906Z,0.70
2019-02-10T08:05:33.962Z,1.10
2019-02-10T08:11:08.625Z,0.60
2019-02-10T08:16:25.213Z,0.67
2019-02-10T08:22:02.385Z,1.07
2019-02-10T08:27:42.056Z,1.47
2019-02-10T08:33:11.469Z,1.00
2019-02-10T08:39:07.149Z,0.80
2019-02-10T08:44:34.450Z,0.70
2019-02-10T08:50:17.972Z,0.93
2019-02-10T08:55:23.252Z,0.43
2019-02-10T09:00:28.394Z,0.70
2019-02-10T09:05:33.300Z,0.83
2019-02-10T09:10:38.235Z,0.97
2019-02-10T09:15:43.557Z,0.70
2019-02-10T09:20:49.768Z,0.53
2019-02-10T09:25:55.303Z,3.63
2019-02-10T09:31:00.522Z,1.10
2019-02-10T09:36:06.167Z,1.03
2019-02-10T09:41:11.663Z,1.20
2019-02-10T09:46:16.738Z,1.17
2019-02-10T09:51:21.840Z,0.90
2019-02-10T09:56:26.783Z,0.90
2019-02-10T10:01:32.105Z,0.97
2019-02-10T10:06:37.884Z,0.40
2019-02-10T10:11:43.844Z,0.47
2019-02-10T10:16:49.233Z,0.47
2019-02-10T10:21:54.506Z,0.90
2019-02-10T10:26:59.672Z,0.70
2019-02-10T10:32:04.829Z,0.50
2019-02-10T10:37:09.989Z,0.20
2019-02-10T10:42:15.449Z,0.93
2019-02-10T10:47:20.658Z,0.37
2019-02-10T10:52:25.745Z,0.90
2019-02-10T10:57:30.565Z,0.73
2019-02-10T11:02:35.517Z,0.40
2019-02-10T11:07:41.106Z,0.70
2019-02-10T11:12:46.276Z,0.30
2019-02-10T11:17:51.772Z,0.43
2019-02-10T11:22:57.216Z,0.67
2019-02-10T11:28:02.532Z,0.60
2019-02-10T11:33:07.973Z,0.60
2019-02-10T11:38:12.844Z,0.90
2019-02-10T11:43:19.701Z,0.50
2019-02-10T11:48:25.713Z,0.50
2019-02-10T11:53:30.633Z,0.67
2019-02-10T11:58:35.795Z,0.60
2019-02-10T12:03:41.236Z,0.73
2019-02-10T12:08:48.699Z,0.90
2019-02-10T12:13:55.836Z,0.70
2019-02-10T12:19:01.126Z,0.80
2019-02-10T12:24:06.083Z,0.50
2019-02-10T12:29:11.236Z,0.90
2019-02-10T12:34:16.069Z,0.80
2019-02-10T12:39:21.252Z,0.83
2019-02-10T12:44:26.731Z,0.83
2019-02-10T12:49:31.974Z,0.63
2019-02-10T12:54:37.200Z,0.50
2019-02-10T12:59:42.368Z,0.97
2019-02-10T13:04:47.818Z,0.50
2019-02-10T13:09:52.939Z,0.40
2019-02-10T13:14:58.479Z,0.70
2019-02-10T13:20:04.035Z,0.90
2019-02-10T13:25:09.052Z,0.33
2019-02-10T13:30:14.249Z,0.47
2019-02-10T13:35:20.609Z,1.27
2019-02-10T13:40:25.981Z,1.73
2019-02-10T13:45:32.419Z,0.53
2019-02-10T13:50:37.691Z,1.43
2019-02-10T13:55:43.457Z,0.80
2019-02-10T14:00:49.260Z,0.50
2019-02-10T14:05:54.242Z,0.60
2019-02-10T14:10:59.328Z,0.70
2019-02-10T14:16:04.827Z,0.43
2019-02-10T14:21:17.544Z,1.43
2019-02-10T14:26:22.877Z,1.10
2019-02-10T14:31:28.100Z,1.43
2019-02-10T14:36:33.591Z,1.77
2019-02-10T14:41:38.642Z,0.87
2019-02-10T14:46:44.046Z,1.37
2019-02-10T14:51:49.025Z,0.50
2019-02-10T14:56:54.195Z,0.87
2019-02-10T15:02:00.792Z,0.40
2019-02-10T15:07:05.706Z,0.80
2019-02-10T15:12:10.937Z,0.60
2019-02-10T15:17:19.022Z,0.30
2019-02-10T15:22:25.597Z,0.50
2019-02-10T15:27:31.199Z,0.40
2019-02-10T15:32:36.115Z,2.30
2019-02-10T15:37:41.101Z,0.80
2019-02-10T15:42:46.654Z,0.30
2019-02-10T15:47:52.763Z,0.50
2019-02-10T15:52:58.288Z,1.00
2019-02-10T15:58:03.859Z,0.80
2019-02-10T16:03:09.010Z,0.90
2019-02-10T16:08:14.216Z,1.00
2019-02-10T16:13:19.513Z,0.77
2019-02-10T16:18:24.745Z,1.43
2019-02-10T16:23:30.771Z,0.80
2019-02-10T16:28:38.235Z,1.00
2019-02-10T16:33:44.947Z,1.13
2019-02-10T16:38:50.641Z,1.93
2019-02-10T16:43:56.789Z,1.50
2019-02-10T16:49:02.013Z,1.27
2019-02-10T16:54:07.882Z,1.70
2019-02-10T16:59:14.471Z,0.80
2019-02-10T17:04:20.041Z,0.93
2019-02-10T17:09:27.768Z,0.70
2019-02-10T17:14:34.128Z,0.70
2019-02-10T17:19:39.382Z,0.70
2019-02-10T17:24:44.653Z,0.70
2019-02-10T17:29:52.519Z,0.50
2019-02-10T17:34:58.236Z,0.63
2019-02-10T17:40:04.453Z,0.80
2019-02-10T17:45:10.014Z,2.77
2019-02-10T17:50:15.288Z,1.47
2019-02-10T17:55:20.499Z,2.10
2019-02-10T18:00:29.438Z,2.40
2019-02-10T18:05:35.548Z,2.63
2019-02-10T18:10:41.286Z,1.40
2019-02-10T18:16:05.819Z,1.77
2019-02-10T18:21:25.152Z,1.30
2019-02-10T18:26:43.097Z,1.33
2019-02-10T18:32:01.178Z,1.10
2019-02-10T18:37:30.514Z,1.40
2019-02-10T18:42:50.689Z,1.47
2019-02-10T18:48:21.222Z,1.20
2019-02-10T18:53:51.581Z,0.90
2019-02-10T18:59:16.845Z,1.43
2019-02-10T19:04:44.850Z,1.50
2019-02-10T19:10:02.733Z,0.77
2019-02-10T19:15:38.581Z,0.70
2019-02-10T19:20:55.412Z,0.97
2019-02-10T19:26:28.804Z,1.37
2019-02-10T19:31:54.694Z,2.60
2019-02-10T19:37:15.347Z,1.27
2019-02-10T19:42:32.719Z,0.67
2019-02-10T19:48:03.200Z,1.40
2019-02-10T19:53:34.642Z,0.70
2019-02-10T19:58:51.338Z,1.20
2019-02-10T20:04:19.665Z,1.10
2019-02-10T20:09:45.028Z,0.70
2019-02-10T20:15:10.063Z,0.87
2019-02-10T20:20:40.371Z,0.80
2019-02-10T20:26:22.099Z,1.47
2019-02-10T20:31:45.701Z,1.83
2019-02-10T20:37:09.635Z,2.60
2019-02-10T20:42:21.072Z,1.13
2019-02-10T20:47:36.282Z,0.80
2019-02-10T20:53:08.291Z,1.30
2019-02-10T20:58:38.599Z,0.90
2019-02-10T21:04:03.720Z,1.60
2019-02-10T21:09:42.498Z,1.13
2019-02-10T21:15:10.091Z,1.33
2019-02-10T21:20:37.116Z,0.80
2019-02-10T21:25:56.451Z,0.70
2019-02-10T21:31:19.268Z,1.07
2019-02-10T21:36:34.041Z,1.60
2019-02-10T21:41:53.341Z,1.63
2019-02-10T21:47:05.786Z,0.93
2019-02-10T21:52:11.318Z,0.80
2019-02-10T21:57:16.313Z,1.33
2019-02-10T22:02:21.524Z,1.00
2019-02-10T22:07:26.286Z,0.57
2019-02-10T22:12:36.914Z,1.10
2019-02-10T22:17:37.775Z,1.73
2019-02-10T22:22:42.696Z,1.47
2019-02-10T22:27:48.341Z,1.50
2019-02-10T22:32:53.590Z,2.17
2019-02-10T22:37:59.088Z,2.13
2019-02-10T22:43:04.529Z,1.70
2019-02-10T22:48:10.278Z,1.90
2019-02-10T22:53:15.282Z,2.87
2019-02-10T22:58:20.168Z,1.97
2019-02-10T23:03:25.357Z,2.10
2019-02-10T23:08:30.302Z,1.53
2019-02-10T23:13:35.784Z,1.40
2019-02-10T23:18:41.338Z,1.37
2019-02-10T23:23:46.356Z,1.37
2019-02-10T23:28:51.257Z,0.80
2019-02-10T23:33:56.146Z,1.10
2019-02-10T23:39:01.292Z,1.10
2019-02-10T23:44:06.368Z,1.20
2019-02-10T23:49:11.222Z,2.20
2019-02-10T23:54:16.122Z,1.47
2019-02-10T23:59:21.398Z,1.40
